sensor_id;sensor_type;location;lat;lon;timestamp;pressure;altitude;pressure_sealevel;temperature;humidity
57024;BME280;42916;54.346;18.562;2024-02-21T00:02:21;100694.93;;;4.63;100.00
57024;BME280;42916;54.346;18.562;2024-02-21T00:04:48;100695.36;;;4.63;100.00
57024;BME280;42916;54.346;18.562;2024-02-21T00:07:15;100689.88;;;4.61;100.00
57024;BME280;42916;54.346;18.562;2024-02-21T00:09:41;100684.04;;;4.60;100.00
57024;BME280;42916;54.346;18.562;2024-02-21T00:12:10;100684.08;;;4.60;100.00
57024;BME280;42916;54.346;18.562;2024-02-21T00:14:37;100682.04;;;4.59;100.00
57024;BME280;42916;54.346;18.562;2024-02-21T00:17:04;100674.88;;;4.58;100.00
57024;BME280;42916;54.346;18.562;2024-02-21T00:19:30;100670.45;;;4.58;100.00
57024;BME280;42916;54.346;18.562;2024-02-21T00:21:57;100670.08;;;4.56;100.00
57024;BME280;42916;54.346;18.562;2024-02-21T00:24:24;100674.59;;;4.55;100.00
57024;BME280;42916;54.346;18.562;2024-02-21T00:26:50;100678.73;;;4.51;100.00
57024;BME280;42916;54.346;18.562;2024-02-21T00:29:17;100674.30;;;4.47;100.00
57024;BME280;42916;54.346;18.562;2024-02-21T00:31:44;100673.81;;;4.44;100.00
57024;BME280;42916;54.346;18.562;2024-02-21T00:34:11;100676.59;;;4.42;100.00
57024;BME280;42916;54.346;18.562;2024-02-21T00:36:39;100670.92;;;4.40;100.00
57024;BME280;42916;54.346;18.562;2024-02-21T00:39:06;100675.09;;;4.40;100.00
57024;BME280;42916;54.346;18.562;2024-02-21T00:41:33;100670.49;;;4.38;100.00
57024;BME280;42916;54.346;18.562;2024-02-21T00:43:59;100663.00;;;4.37;100.00
57024;BME280;42916;54.346;18.562;2024-02-21T00:46:26;100658.44;;;4.36;100.00
57024;BME280;42916;54.346;18.562;2024-02-21T00:48:53;100656.73;;;4.37;100.00
57024;BME280;42916;54.346;18.562;2024-02-21T00:51:19;100658.52;;;4.38;100.00
57024;BME280;42916;54.346;18.562;2024-02-21T00:53:46;100654.88;;;4.40;100.00
57024;BME280;42916;54.346;18.562;2024-02-21T00:56:12;100655.57;;;4.42;100.00
57024;BME280;42916;54.346;18.562;2024-02-21T00:58:39;100652.26;;;4.46;100.00
57024;BME280;42916;54.346;18.562;2024-02-21T01:01:06;100647.52;;;4.49;100.00
57024;BME280;42916;54.346;18.562;2024-02-21T01:03:32;100642.98;;;4.52;100.00
57024;BME280;42916;54.346;18.562;2024-02-21T01:05:59;100641.40;;;4.53;100.00
57024;BME280;42916;54.346;18.562;2024-02-21T01:08:26;100638.70;;;4.56;100.00
57024;BME280;42916;54.346;18.562;2024-02-21T01:10:52;100634.50;;;4.57;100.00
57024;BME280;42916;54.346;18.562;2024-02-21T01:13:19;100628.03;;;4.60;100.00
57024;BME280;42916;54.346;18.562;2024-02-21T01:15:46;100629.66;;;4.62;100.00
57024;BME280;42916;54.346;18.562;2024-02-21T01:18:12;100628.83;;;4.62;100.00
57024;BME280;42916;54.346;18.562;2024-02-21T01:20:39;100627.13;;;4.62;100.00
57024;BME280;42916;54.346;18.562;2024-02-21T01:23:06;100625.42;;;4.62;100.00
57024;BME280;42916;54.346;18.562;2024-02-21T01:25:33;100619.12;;;4.62;100.00
57024;BME280;42916;54.346;18.562;2024-02-21T01:27:59;100619.13;;;4.63;100.00
57024;BME280;42916;54.346;18.562;2024-02-21T01:30:26;100614.97;;;4.64;100.00
57024;BME280;42916;54.346;18.562;2024-02-21T01:32:53;100615.52;;;4.65;100.00
57024;BME280;42916;54.346;18.562;2024-02-21T01:35:19;100616.16;;;4.67;100.00
57024;BME280;42916;54.346;18.562;2024-02-21T01:37:46;100611.10;;;4.68;100.00
57024;BME280;42916;54.346;18.562;2024-02-21T01:40:12;100609.48;;;4.69;100.00
57024;BME280;42916;54.346;18.562;2024-02-21T01:42:39;100610.40;;;4.72;100.00
57024;BME280;42916;54.346;18.562;2024-02-21T01:45:07;100604.16;;;4.75;100.00
57024;BME280;42916;54.346;18.562;2024-02-21T01:47:35;100608.59;;;4.77;100.00
57024;BME280;42916;54.346;18.562;2024-02-21T01:50:02;100610.41;;;4.80;100.00
57024;BME280;42916;54.346;18.562;2024-02-21T01:52:30;100607.11;;;4.81;100.00
57024;BME280;42916;54.346;18.562;2024-02-21T01:54:57;100606.70;;;4.84;100.00
57024;BME280;42916;54.346;18.562;2024-02-21T01:57:24;100610.19;;;4.87;100.00
57024;BME280;42916;54.346;18.562;2024-02-21T01:59:52;100602.16;;;4.88;100.00
57024;BME280;42916;54.346;18.562;2024-02-21T02:02:18;100599.67;;;4.90;100.00
57024;BME280;42916;54.346;18.562;2024-02-21T02:04:45;100596.02;;;4.92;100.00
57024;BME280;42916;54.346;18.562;2024-02-21T02:07:12;100594.20;;;4.94;100.00
57024;BME280;42916;54.346;18.562;2024-02-21T02:09:39;100592.48;;;4.94;100.00
57024;BME280;42916;54.346;18.562;2024-02-21T02:12:06;100585.48;;;4.95;100.00
57024;BME280;42916;54.346;18.562;2024-02-21T02:14:33;100586.38;;;4.96;100.00
57024;BME280;42916;54.346;18.562;2024-02-21T02:16:59;100582.97;;;4.99;100.00
57024;BME280;42916;54.346;18.562;2024-02-21T02:19:26;100576.33;;;5.01;100.00
57024;BME280;42916;54.346;18.562;2024-02-21T02:22:06;100569.71;;;5.04;100.00
57024;BME280;42916;54.346;18.562;2024-02-21T02:24:35;100564.06;;;5.06;100.00
57024;BME280;42916;54.346;18.562;2024-02-21T02:27:02;100559.17;;;5.07;100.00
57024;BME280;42916;54.346;18.562;2024-02-21T02:29:32;100561.56;;;5.08;100.00
57024;BME280;42916;54.346;18.562;2024-02-21T02:31:58;100557.30;;;5.06;100.00
57024;BME280;42916;54.346;18.562;2024-02-21T02:34:25;100557.42;;;5.05;100.00
57024;BME280;42916;54.346;18.562;2024-02-21T02:36:52;100550.59;;;5.06;100.00
57024;BME280;42916;54.346;18.562;2024-02-21T02:39:18;100549.29;;;5.06;100.00
57024;BME280;42916;54.346;18.562;2024-02-21T02:41:45;100546.11;;;5.07;100.00
57024;BME280;42916;54.346;18.562;2024-02-21T02:44:12;100540.20;;;5.08;100.00
57024;BME280;42916;54.346;18.562;2024-02-21T02:46:40;100532.61;;;5.08;100.00
57024;BME280;42916;54.346;18.562;2024-02-21T02:49:07;100527.71;;;5.10;100.00
57024;BME280;42916;54.346;18.562;2024-02-21T02:51:34;100525.50;;;5.10;100.00
57024;BME280;42916;54.346;18.562;2024-02-21T02:54:02;100530.52;;;5.12;100.00
57024;BME280;42916;54.346;18.562;2024-02-21T02:56:28;100525.66;;;5.13;100.00
57024;BME280;42916;54.346;18.562;2024-02-21T02:58:55;100523.41;;;5.14;100.00
57024;BME280;42916;54.346;18.562;2024-02-21T03:01:22;100519.75;;;5.15;100.00
57024;BME280;42916;54.346;18.562;2024-02-21T03:03:48;100518.28;;;5.17;100.00
57024;BME280;42916;54.346;18.562;2024-02-21T03:06:15;100519.95;;;5.16;100.00
57024;BME280;42916;54.346;18.562;2024-02-21T03:08:42;100515.05;;;5.18;100.00
57024;BME280;42916;54.346;18.562;2024-02-21T03:11:09;100515.16;;;5.18;100.00
57024;BME280;42916;54.346;18.562;2024-02-21T03:13:37;100517.33;;;5.20;100.00
57024;BME280;42916;54.346;18.562;2024-02-21T03:16:04;100516.41;;;5.20;100.00
57024;BME280;42916;54.346;18.562;2024-02-21T03:18:30;100512.88;;;5.19;100.00
57024;BME280;42916;54.346;18.562;2024-02-21T03:20:58;100512.75;;;5.20;100.00
57024;BME280;42916;54.346;18.562;2024-02-21T03:23:24;100509.17;;;5.22;100.00
57024;BME280;42916;54.346;18.562;2024-02-21T03:25:51;100507.95;;;5.22;100.00
57024;BME280;42916;54.346;18.562;2024-02-21T03:28:18;100507.91;;;5.25;100.00
57024;BME280;42916;54.346;18.562;2024-02-21T03:30:44;100510.42;;;5.26;100.00
57024;BME280;42916;54.346;18.562;2024-02-21T03:33:11;100504.86;;;5.26;100.00
57024;BME280;42916;54.346;18.562;2024-02-21T03:35:38;100498.61;;;5.26;100.00
57024;BME280;42916;54.346;18.562;2024-02-21T03:38:04;100495.92;;;5.25;100.00
57024;BME280;42916;54.346;18.562;2024-02-21T03:40:31;100500.48;;;5.23;100.00
57024;BME280;42916;54.346;18.562;2024-02-21T03:42:58;100497.64;;;5.23;100.00
57024;BME280;42916;54.346;18.562;2024-02-21T03:45:24;100496.94;;;5.21;100.00
57024;BME280;42916;54.346;18.562;2024-02-21T03:47:51;100492.34;;;5.21;100.00
57024;BME280;42916;54.346;18.562;2024-02-21T03:50:18;100492.55;;;5.21;100.00
57024;BME280;42916;54.346;18.562;2024-02-21T03:52:45;100490.30;;;5.20;100.00
57024;BME280;42916;54.346;18.562;2024-02-21T03:55:12;100487.52;;;5.21;100.00
57024;BME280;42916;54.346;18.562;2024-02-21T03:57:38;100483.09;;;5.20;100.00
57024;BME280;42916;54.346;18.562;2024-02-21T04:00:05;100481.30;;;5.20;100.00
57024;BME280;42916;54.346;18.562;2024-02-21T04:02:37;100477.81;;;5.21;100.00
57024;BME280;42916;54.346;18.562;2024-02-21T04:05:04;100474.70;;;5.21;100.00
57024;BME280;42916;54.346;18.562;2024-02-21T04:07:31;100475.05;;;5.22;100.00
57024;BME280;42916;54.346;18.562;2024-02-21T04:09:58;100472.27;;;5.23;100.00
57024;BME280;42916;54.346;18.562;2024-02-21T04:12:24;100472.82;;;5.23;100.00
57024;BME280;42916;54.346;18.562;2024-02-21T04:14:51;100470.30;;;5.22;100.00
57024;BME280;42916;54.346;18.562;2024-02-21T04:17:18;100466.66;;;5.21;100.00
57024;BME280;42916;54.346;18.562;2024-02-21T04:19:44;100463.17;;;5.20;100.00
57024;BME280;42916;54.346;18.562;2024-02-21T04:22:11;100462.51;;;5.19;100.00
57024;BME280;42916;54.346;18.562;2024-02-21T04:24:37;100460.60;;;5.19;100.00
57024;BME280;42916;54.346;18.562;2024-02-21T04:27:04;100456.33;;;5.17;100.00
57024;BME280;42916;54.346;18.562;2024-02-21T04:29:31;100455.16;;;5.18;100.00
57024;BME280;42916;54.346;18.562;2024-02-21T04:31:57;100450.15;;;5.18;100.00
57024;BME280;42916;54.346;18.562;2024-02-21T04:34:24;100445.92;;;5.18;100.00
57024;BME280;42916;54.346;18.562;2024-02-21T04:36:51;100449.61;;;5.18;100.00
57024;BME280;42916;54.346;18.562;2024-02-21T04:39:17;100442.73;;;5.18;100.00
57024;BME280;42916;54.346;18.562;2024-02-21T04:41:44;100434.31;;;5.18;100.00
57024;BME280;42916;54.346;18.562;2024-02-21T04:44:10;100434.34;;;5.19;100.00
57024;BME280;42916;54.346;18.562;2024-02-21T04:46:37;100424.92;;;5.18;100.00
57024;BME280;42916;54.346;18.562;2024-02-21T04:49:04;100426.27;;;5.18;100.00
57024;BME280;42916;54.346;18.562;2024-02-21T04:51:30;100426.55;;;5.17;100.00
57024;BME280;42916;54.346;18.562;2024-02-21T04:53:57;100419.56;;;5.16;100.00
57024;BME280;42916;54.346;18.562;2024-02-21T04:56:24;100415.79;;;5.14;100.00
57024;BME280;42916;54.346;18.562;2024-02-21T04:58:51;100413.14;;;5.14;100.00
57024;BME280;42916;54.346;18.562;2024-02-21T05:01:18;100410.68;;;5.14;100.00
57024;BME280;42916;54.346;18.562;2024-02-21T05:03:44;100405.13;;;5.14;100.00
57024;BME280;42916;54.346;18.562;2024-02-21T05:06:11;100401.15;;;5.14;100.00
57024;BME280;42916;54.346;18.562;2024-02-21T05:08:38;100399.11;;;5.14;100.00
57024;BME280;42916;54.346;18.562;2024-02-21T05:11:04;100391.40;;;5.14;100.00
57024;BME280;42916;54.346;18.562;2024-02-21T05:13:31;100394.42;;;5.16;100.00
57024;BME280;42916;54.346;18.562;2024-02-21T05:15:57;100384.73;;;5.16;100.00
57024;BME280;42916;54.346;18.562;2024-02-21T05:18:27;100375.40;;;5.18;100.00
57024;BME280;42916;54.346;18.562;2024-02-21T05:20:54;100373.02;;;5.18;100.00
57024;BME280;42916;54.346;18.562;2024-02-21T05:23:21;100373.11;;;5.19;100.00
57024;BME280;42916;54.346;18.562;2024-02-21T05:25:48;100375.34;;;5.19;100.00
57024;BME280;42916;54.346;18.562;2024-02-21T05:28:14;100372.15;;;5.20;100.00
57024;BME280;42916;54.346;18.562;2024-02-21T05:30:41;100369.85;;;5.21;100.00
57024;BME280;42916;54.346;18.562;2024-02-21T05:33:09;100366.22;;;5.23;100.00
57024;BME280;42916;54.346;18.562;2024-02-21T05:35:36;100366.45;;;5.25;100.00
57024;BME280;42916;54.346;18.562;2024-02-21T05:38:03;100364.88;;;5.26;100.00
57024;BME280;42916;54.346;18.562;2024-02-21T05:40:37;100360.95;;;5.24;100.00
57024;BME280;42916;54.346;18.562;2024-02-21T05:43:04;100357.01;;;5.24;100.00
57024;BME280;42916;54.346;18.562;2024-02-21T05:45:31;100353.44;;;5.24;100.00
57024;BME280;42916;54.346;18.562;2024-02-21T05:47:58;100355.05;;;5.24;100.00
57024;BME280;42916;54.346;18.562;2024-02-21T05:50:25;100351.61;;;5.24;100.00
57024;BME280;42916;54.346;18.562;2024-02-21T05:52:56;100350.95;;;5.24;100.00
57024;BME280;42916;54.346;18.562;2024-02-21T05:55:23;100342.84;;;5.25;100.00
57024;BME280;42916;54.346;18.562;2024-02-21T05:57:53;100336.44;;;5.27;100.00
57024;BME280;42916;54.346;18.562;2024-02-21T06:00:21;100341.11;;;5.28;100.00
57024;BME280;42916;54.346;18.562;2024-02-21T06:02:47;100336.45;;;5.30;100.00
57024;BME280;42916;54.346;18.562;2024-02-21T06:05:14;100335.17;;;5.33;100.00
57024;BME280;42916;54.346;18.562;2024-02-21T06:07:41;100331.30;;;5.36;100.00
57024;BME280;42916;54.346;18.562;2024-02-21T06:10:07;100330.86;;;5.38;100.00
57024;BME280;42916;54.346;18.562;2024-02-21T06:12:35;100333.98;;;5.41;100.00
57024;BME280;42916;54.346;18.562;2024-02-21T06:15:02;100327.83;;;5.42;100.00
57024;BME280;42916;54.346;18.562;2024-02-21T06:17:29;100324.60;;;5.44;100.00
57024;BME280;42916;54.346;18.562;2024-02-21T06:19:56;100315.58;;;5.47;100.00
57024;BME280;42916;54.346;18.562;2024-02-21T06:22:22;100315.27;;;5.50;100.00
57024;BME280;42916;54.346;18.562;2024-02-21T06:24:49;100310.30;;;5.52;100.00
57024;BME280;42916;54.346;18.562;2024-02-21T06:27:16;100300.07;;;5.53;100.00
57024;BME280;42916;54.346;18.562;2024-02-21T06:29:43;100295.34;;;5.53;100.00
57024;BME280;42916;54.346;18.562;2024-02-21T06:32:10;100294.09;;;5.53;100.00
57024;BME280;42916;54.346;18.562;2024-02-21T06:34:37;100291.97;;;5.54;100.00
57024;BME280;42916;54.346;18.562;2024-02-21T06:37:03;100289.85;;;5.54;100.00
57024;BME280;42916;54.346;18.562;2024-02-21T06:39:30;100295.50;;;5.57;100.00
57024;BME280;42916;54.346;18.562;2024-02-21T06:41:57;100297.34;;;5.59;100.00
57024;BME280;42916;54.346;18.562;2024-02-21T06:44:23;100302.06;;;5.61;100.00
57024;BME280;42916;54.346;18.562;2024-02-21T06:46:50;100301.55;;;5.62;100.00
57024;BME280;42916;54.346;18.562;2024-02-21T06:49:19;100304.33;;;5.65;100.00
57024;BME280;42916;54.346;18.562;2024-02-21T06:51:46;100312.56;;;5.68;100.00
57024;BME280;42916;54.346;18.562;2024-02-21T06:54:13;100312.77;;;5.70;100.00
57024;BME280;42916;54.346;18.562;2024-02-21T06:56:40;100313.07;;;5.71;100.00
57024;BME280;42916;54.346;18.562;2024-02-21T06:59:08;100313.77;;;5.72;100.00
57024;BME280;42916;54.346;18.562;2024-02-21T07:01:35;100312.00;;;5.75;100.00
57024;BME280;42916;54.346;18.562;2024-02-21T07:04:04;100305.80;;;5.75;100.00
57024;BME280;42916;54.346;18.562;2024-02-21T07:06:30;100305.04;;;5.77;100.00
57024;BME280;42916;54.346;18.562;2024-02-21T07:08:58;100301.61;;;5.78;100.00
57024;BME280;42916;54.346;18.562;2024-02-21T07:11:25;100299.41;;;5.78;100.00
57024;BME280;42916;54.346;18.562;2024-02-21T07:13:52;100293.06;;;5.81;100.00
57024;BME280;42916;54.346;18.562;2024-02-21T07:16:18;100292.11;;;5.81;100.00
57024;BME280;42916;54.346;18.562;2024-02-21T07:18:45;100292.42;;;5.81;100.00
57024;BME280;42916;54.346;18.562;2024-02-21T07:21:12;100288.27;;;5.83;100.00
57024;BME280;42916;54.346;18.562;2024-02-21T07:23:42;100278.39;;;5.85;100.00
57024;BME280;42916;54.346;18.562;2024-02-21T07:26:09;100280.39;;;5.87;100.00
57024;BME280;42916;54.346;18.562;2024-02-21T07:28:35;100283.63;;;5.89;100.00
57024;BME280;42916;54.346;18.562;2024-02-21T07:31:02;100284.56;;;5.90;100.00
57024;BME280;42916;54.346;18.562;2024-02-21T07:33:29;100286.22;;;5.91;100.00
57024;BME280;42916;54.346;18.562;2024-02-21T07:35:57;100281.46;;;5.92;100.00
57024;BME280;42916;54.346;18.562;2024-02-21T07:38:23;100279.02;;;5.92;100.00
57024;BME280;42916;54.346;18.562;2024-02-21T07:40:50;100274.45;;;5.91;100.00
57024;BME280;42916;54.346;18.562;2024-02-21T07:43:17;100271.50;;;5.91;100.00
57024;BME280;42916;54.346;18.562;2024-02-21T07:45:43;100269.02;;;5.91;100.00
57024;BME280;42916;54.346;18.562;2024-02-21T07:48:10;100265.89;;;5.92;100.00
57024;BME280;42916;54.346;18.562;2024-02-21T07:50:37;100261.02;;;5.93;100.00
57024;BME280;42916;54.346;18.562;2024-02-21T07:53:04;100255.92;;;5.95;100.00
57024;BME280;42916;54.346;18.562;2024-02-21T07:55:31;100251.11;;;5.96;100.00
57024;BME280;42916;54.346;18.562;2024-02-21T07:57:57;100247.09;;;5.96;100.00
57024;BME280;42916;54.346;18.562;2024-02-21T08:00:24;100240.85;;;5.97;100.00
57024;BME280;42916;54.346;18.562;2024-02-21T08:02:51;100232.05;;;5.97;100.00
57024;BME280;42916;54.346;18.562;2024-02-21T08:05:17;100228.06;;;5.97;100.00
57024;BME280;42916;54.346;18.562;2024-02-21T08:07:44;100230.58;;;5.98;100.00
57024;BME280;42916;54.346;18.562;2024-02-21T08:10:11;100225.88;;;5.98;100.00
57024;BME280;42916;54.346;18.562;2024-02-21T08:12:38;100228.61;;;6.00;100.00
57024;BME280;42916;54.346;18.562;2024-02-21T08:15:05;100222.20;;;6.02;100.00
57024;BME280;42916;54.346;18.562;2024-02-21T08:17:33;100216.25;;;6.06;100.00
57024;BME280;42916;54.346;18.562;2024-02-21T08:19:59;100212.64;;;6.09;100.00
57024;BME280;42916;54.346;18.562;2024-02-21T08:22:26;100207.84;;;6.11;100.00
57024;BME280;42916;54.346;18.562;2024-02-21T08:24:53;100209.45;;;6.14;100.00
57024;BME280;42916;54.346;18.562;2024-02-21T08:27:19;100205.45;;;6.17;100.00
57024;BME280;42916;54.346;18.562;2024-02-21T08:29:46;100202.35;;;6.20;100.00
57024;BME280;42916;54.346;18.562;2024-02-21T08:32:13;100200.09;;;6.20;100.00
57024;BME280;42916;54.346;18.562;2024-02-21T08:34:39;100194.41;;;6.20;100.00
57024;BME280;42916;54.346;18.562;2024-02-21T08:37:06;100190.63;;;6.20;100.00
57024;BME280;42916;54.346;18.562;2024-02-21T08:39:33;100191.25;;;6.19;100.00
57024;BME280;42916;54.346;18.562;2024-02-21T08:42:00;100187.98;;;6.18;100.00
57024;BME280;42916;54.346;18.562;2024-02-21T08:44:28;100184.20;;;6.18;100.00
57024;BME280;42916;54.346;18.562;2024-02-21T08:46:54;100183.80;;;6.20;100.00
57024;BME280;42916;54.346;18.562;2024-02-21T08:49:22;100181.38;;;6.21;100.00
57024;BME280;42916;54.346;18.562;2024-02-21T08:51:48;100177.66;;;6.22;100.00
57024;BME280;42916;54.346;18.562;2024-02-21T08:54:15;100172.47;;;6.24;100.00
57024;BME280;42916;54.346;18.562;2024-02-21T08:56:42;100171.05;;;6.28;100.00
57024;BME280;42916;54.346;18.562;2024-02-21T08:59:08;100167.59;;;6.30;100.00
57024;BME280;42916;54.346;18.562;2024-02-21T09:01:35;100160.40;;;6.34;100.00
57024;BME280;42916;54.346;18.562;2024-02-21T09:04:02;100161.96;;;6.37;100.00
57024;BME280;42916;54.346;18.562;2024-02-21T09:06:29;100161.01;;;6.39;100.00
57024;BME280;42916;54.346;18.562;2024-02-21T09:08:57;100163.67;;;6.42;100.00
57024;BME280;42916;54.346;18.562;2024-02-21T09:11:24;100166.33;;;6.43;100.00
57024;BME280;42916;54.346;18.562;2024-02-21T09:13:51;100161.67;;;6.45;100.00
57024;BME280;42916;54.346;18.562;2024-02-21T09:16:18;100164.89;;;6.44;100.00
57024;BME280;42916;54.346;18.562;2024-02-21T09:18:44;100167.37;;;6.43;100.00
57024;BME280;42916;54.346;18.562;2024-02-21T09:21:11;100168.31;;;6.42;100.00
57024;BME280;42916;54.346;18.562;2024-02-21T09:23:38;100170.57;;;6.42;100.00
57024;BME280;42916;54.346;18.562;2024-02-21T09:26:04;100172.85;;;6.40;100.00
57024;BME280;42916;54.346;18.562;2024-02-21T09:28:31;100165.46;;;6.38;100.00
57024;BME280;42916;54.346;18.562;2024-02-21T09:30:59;100166.27;;;6.38;100.00
57024;BME280;42916;54.346;18.562;2024-02-21T09:33:26;100162.31;;;6.40;100.00
57024;BME280;42916;54.346;18.562;2024-02-21T09:35:53;100158.42;;;6.45;100.00
57024;BME280;42916;54.346;18.562;2024-02-21T09:38:20;100153.49;;;6.51;100.00
57024;BME280;42916;54.346;18.562;2024-02-21T09:40:52;100151.89;;;6.56;100.00
57024;BME280;42916;54.346;18.562;2024-02-21T09:43:22;100150.09;;;6.60;100.00
57024;BME280;42916;54.346;18.562;2024-02-21T09:45:50;100145.02;;;6.65;100.00
57024;BME280;42916;54.346;18.562;2024-02-21T09:48:46;100142.89;;;6.72;100.00
57024;BME280;42916;54.346;18.562;2024-02-21T09:51:17;100141.81;;;6.77;100.00
57024;BME280;42916;54.346;18.562;2024-02-21T09:53:46;100137.10;;;6.82;100.00
57024;BME280;42916;54.346;18.562;2024-02-21T09:56:14;100135.42;;;6.91;100.00
57024;BME280;42916;54.346;18.562;2024-02-21T09:58:40;100126.83;;;6.99;100.00
57024;BME280;42916;54.346;18.562;2024-02-21T10:01:08;100133.13;;;7.11;100.00
57024;BME280;42916;54.346;18.562;2024-02-21T10:03:35;100129.98;;;7.16;100.00
57024;BME280;42916;54.346;18.562;2024-02-21T10:06:01;100130.15;;;7.10;100.00
57024;BME280;42916;54.346;18.562;2024-02-21T10:08:28;100130.73;;;7.08;100.00
57024;BME280;42916;54.346;18.562;2024-02-21T10:10:55;100127.35;;;7.12;100.00
57024;BME280;42916;54.346;18.562;2024-02-21T10:13:27;100122.67;;;7.26;100.00
57024;BME280;42916;54.346;18.562;2024-02-21T10:16:02;100114.58;;;7.36;100.00
57024;BME280;42916;54.346;18.562;2024-02-21T10:18:29;100109.15;;;7.53;100.00
57024;BME280;42916;54.346;18.562;2024-02-21T10:21:03;100103.69;;;7.77;100.00
57024;BME280;42916;54.346;18.562;2024-02-21T10:23:48;100101.21;;;7.97;100.00
57024;BME280;42916;54.346;18.562;2024-02-21T10:26:17;100099.10;;;8.00;100.00
57024;BME280;42916;54.346;18.562;2024-02-21T10:28:44;100100.05;;;8.01;100.00
57024;BME280;42916;54.346;18.562;2024-02-21T10:31:26;100093.67;;;8.10;100.00
57024;BME280;42916;54.346;18.562;2024-02-21T10:33:57;100094.29;;;8.08;100.00
57024;BME280;42916;54.346;18.562;2024-02-21T10:36:25;100096.05;;;8.16;100.00
57024;BME280;42916;54.346;18.562;2024-02-21T10:38:52;100090.69;;;8.30;100.00
57024;BME280;42916;54.346;18.562;2024-02-21T10:41:21;100088.95;;;8.37;100.00
57024;BME280;42916;54.346;18.562;2024-02-21T10:43:53;100082.85;;;8.42;100.00
57024;BME280;42916;54.346;18.562;2024-02-21T10:46:22;100079.06;;;8.39;100.00
57024;BME280;42916;54.346;18.562;2024-02-21T10:49:10;100074.34;;;8.44;100.00
57024;BME280;42916;54.346;18.562;2024-02-21T10:51:43;100080.27;;;8.49;100.00
57024;BME280;42916;54.346;18.562;2024-02-21T10:54:45;100073.94;;;8.43;100.00
57024;BME280;42916;54.346;18.562;2024-02-21T10:57:15;100073.66;;;8.26;100.00
57024;BME280;42916;54.346;18.562;2024-02-21T10:59:44;100074.46;;;8.11;100.00
57024;BME280;42916;54.346;18.562;2024-02-21T11:02:11;100072.10;;;8.05;100.00
57024;BME280;42916;54.346;18.562;2024-02-21T11:04:38;100070.34;;;7.97;100.00
57024;BME280;42916;54.346;18.562;2024-02-21T11:07:07;100072.63;;;7.94;100.00
57024;BME280;42916;54.346;18.562;2024-02-21T11:09:34;100073.17;;;7.99;100.00
57024;BME280;42916;54.346;18.562;2024-02-21T11:12:03;100065.66;;;7.99;100.00
57024;BME280;42916;54.346;18.562;2024-02-21T11:14:31;100063.75;;;8.01;100.00
57024;BME280;42916;54.346;18.562;2024-02-21T11:17:19;100062.63;;;8.02;100.00
57024;BME280;42916;54.346;18.562;2024-02-21T11:19:48;100059.52;;;8.05;100.00
57024;BME280;42916;54.346;18.562;2024-02-21T11:22:16;100053.73;;;8.05;100.00
57024;BME280;42916;54.346;18.562;2024-02-21T11:24:43;100047.47;;;8.03;100.00
57024;BME280;42916;54.346;18.562;2024-02-21T11:27:19;100043.80;;;8.00;100.00
57024;BME280;42916;54.346;18.562;2024-02-21T11:29:56;100043.48;;;7.97;100.00
57024;BME280;42916;54.346;18.562;2024-02-21T11:32:25;100040.48;;;7.96;100.00
57024;BME280;42916;54.346;18.562;2024-02-21T11:34:59;100042.57;;;7.95;100.00
57024;BME280;42916;54.346;18.562;2024-02-21T11:37:28;100035.76;;;7.92;100.00
57024;BME280;42916;54.346;18.562;2024-02-21T11:39:56;100038.63;;;7.88;100.00
57024;BME280;42916;54.346;18.562;2024-02-21T11:42:25;100029.91;;;7.85;100.00
57024;BME280;42916;54.346;18.562;2024-02-21T11:44:53;100028.06;;;7.85;100.00
57024;BME280;42916;54.346;18.562;2024-02-21T11:47:24;100028.53;;;7.87;100.00
57024;BME280;42916;54.346;18.562;2024-02-21T11:49:51;100019.77;;;7.91;100.00
57024;BME280;42916;54.346;18.562;2024-02-21T11:52:22;100019.36;;;7.97;100.00
57024;BME280;42916;54.346;18.562;2024-02-21T11:54:51;100020.02;;;8.04;100.00
57024;BME280;42916;54.346;18.562;2024-02-21T11:57:24;100014.42;;;8.03;100.00
57024;BME280;42916;54.346;18.562;2024-02-21T11:59:51;100012.52;;;7.98;100.00
57024;BME280;42916;54.346;18.562;2024-02-21T12:02:19;100014.95;;;7.95;100.00
57024;BME280;42916;54.346;18.562;2024-02-21T12:04:46;100011.67;;;7.89;100.00
57024;BME280;42916;54.346;18.562;2024-02-21T12:07:14;100013.48;;;7.88;100.00
57024;BME280;42916;54.346;18.562;2024-02-21T12:09:41;100009.07;;;8.04;100.00
57024;BME280;42916;54.346;18.562;2024-02-21T12:12:08;99999.14;;;8.06;100.00
57024;BME280;42916;54.346;18.562;2024-02-21T12:14:35;99994.69;;;8.02;100.00
57024;BME280;42916;54.346;18.562;2024-02-21T12:17:02;99991.11;;;8.13;100.00
57024;BME280;42916;54.346;18.562;2024-02-21T12:19:33;99984.67;;;8.21;100.00
57024;BME280;42916;54.346;18.562;2024-02-21T12:22:00;99981.82;;;8.19;100.00
57024;BME280;42916;54.346;18.562;2024-02-21T12:24:28;99988.77;;;8.20;100.00
57024;BME280;42916;54.346;18.562;2024-02-21T12:26:56;99985.32;;;8.26;100.00
57024;BME280;42916;54.346;18.562;2024-02-21T12:29:26;99973.76;;;8.28;100.00
57024;BME280;42916;54.346;18.562;2024-02-21T12:31:53;99966.95;;;8.30;100.00
57024;BME280;42916;54.346;18.562;2024-02-21T12:34:24;99960.19;;;8.27;100.00
57024;BME280;42916;54.346;18.562;2024-02-21T12:36:51;99959.77;;;8.28;100.00
57024;BME280;42916;54.346;18.562;2024-02-21T12:39:18;99951.45;;;8.34;100.00
57024;BME280;42916;54.346;18.562;2024-02-21T12:41:45;99949.45;;;8.34;100.00
57024;BME280;42916;54.346;18.562;2024-02-21T12:44:12;99945.74;;;8.33;100.00